sensor_id;sensor_type;location;lat;lon;timestamp;P1;durP1;ratioP1;P2;durP2;ratioP2
47433;SDS011;33184;48.774;8.918;2022-10-22T00:02:14;1.48;;;0.10;;
47433;SDS011;33184;48.774;8.918;2022-10-22T00:12:59;0.43;;;0.03;;
47433;SDS011;33184;48.774;8.918;2022-10-22T00:18:19;0.60;;;0.00;;
47433;SDS011;33184;48.774;8.918;2022-10-22T00:23:40;1.75;;;0.05;;
47433;SDS011;33184;48.774;8.918;2022-10-22T00:29:01;0.30;;;0.10;;
47433;SDS011;33184;48.774;8.918;2022-10-22T00:34:22;1.55;;;0.10;;
47433;SDS011;33184;48.774;8.918;2022-10-22T00:39:43;1.83;;;0.10;;
47433;SDS011;33184;48.774;8.918;2022-10-22T00:45:23;1.65;;;0.10;;
47433;SDS011;33184;48.774;8.918;2022-10-22T00:56:15;1.50;;;0.10;;
47433;SDS011;33184;48.774;8.918;2022-10-22T01:01:36;0.20;;;0.00;;
47433;SDS011;33184;48.774;8.918;2022-10-22T01:06:57;0.38;;;0.10;;
47433;SDS011;33184;48.774;8.918;2022-10-22T01:12:22;0.43;;;0.10;;
47433;SDS011;33184;48.774;8.918;2022-10-22T01:18:08;0.65;;;0.10;;
47433;SDS011;33184;48.774;8.918;2022-10-22T01:29:00;0.10;;;0.10;;
47433;SDS011;33184;48.774;8.918;2022-10-22T01:34:26;0.45;;;0.10;;
47433;SDS011;33184;48.774;8.918;2022-10-22T01:39:49;1.17;;;0.10;;
47433;SDS011;33184;48.774;8.918;2022-10-22T01:45:11;0.40;;;0.10;;
47433;SDS011;33184;48.774;8.918;2022-10-22T01:50:45;0.28;;;0.10;;
47433;SDS011;33184;48.774;8.918;2022-10-22T02:01:40;1.17;;;0.10;;
47433;SDS011;33184;48.774;8.918;2022-10-22T02:07:09;0.35;;;0.10;;
47433;SDS011;33184;48.774;8.918;2022-10-22T02:12:33;0.65;;;0.10;;
47433;SDS011;33184;48.774;8.918;2022-10-22T02:17:55;0.73;;;0.00;;
47433;SDS011;33184;48.774;8.918;2022-10-22T02:23:19;0.98;;;0.13;;
47433;SDS011;33184;48.774;8.918;2022-10-22T02:34:26;0.38;;;0.10;;
47433;SDS011;33184;48.774;8.918;2022-10-22T02:39:50;1.52;;;0.10;;
47433;SDS011;33184;48.774;8.918;2022-10-22T02:45:12;1.88;;;0.17;;
47433;SDS011;33184;48.774;8.918;2022-10-22T02:50:33;2.55;;;0.20;;
47433;SDS011;33184;48.774;8.918;2022-10-22T02:55:53;1.58;;;0.10;;
47433;SDS011;33184;48.774;8.918;2022-10-22T03:01:14;1.30;;;0.10;;
47433;SDS011;33184;48.774;8.918;2022-10-22T03:06:34;3.35;;;0.10;;
47433;SDS011;33184;48.774;8.918;2022-10-22T03:11:55;0.35;;;0.15;;
47433;SDS011;33184;48.774;8.918;2022-10-22T03:17:16;0.70;;;0.10;;
47433;SDS011;33184;48.774;8.918;2022-10-22T03:22:36;1.63;;;0.20;;
47433;SDS011;33184;48.774;8.918;2022-10-22T03:28:04;0.90;;;0.13;;
47433;SDS011;33184;48.774;8.918;2022-10-22T03:33:27;0.52;;;0.10;;
47433;SDS011;33184;48.774;8.918;2022-10-22T03:38:48;1.05;;;0.10;;
47433;SDS011;33184;48.774;8.918;2022-10-22T03:44:08;0.20;;;0.10;;
47433;SDS011;33184;48.774;8.918;2022-10-22T03:49:29;0.25;;;0.10;;
47433;SDS011;33184;48.774;8.918;2022-10-22T03:54:50;1.67;;;0.22;;
47433;SDS011;33184;48.774;8.918;2022-10-22T04:00:11;0.20;;;0.10;;
47433;SDS011;33184;48.774;8.918;2022-10-22T04:05:32;0.30;;;0.10;;
47433;SDS011;33184;48.774;8.918;2022-10-22T04:10:53;2.08;;;0.10;;
47433;SDS011;33184;48.774;8.918;2022-10-22T04:16:14;0.90;;;0.10;;
47433;SDS011;33184;48.774;8.918;2022-10-22T04:21:39;1.65;;;0.10;;
47433;SDS011;33184;48.774;8.918;2022-10-22T04:27:00;0.80;;;0.10;;
47433;SDS011;33184;48.774;8.918;2022-10-22T04:32:20;0.80;;;0.10;;
47433;SDS011;33184;48.774;8.918;2022-10-22T04:37:40;0.50;;;0.00;;
47433;SDS011;33184;48.774;8.918;2022-10-22T04:43:01;0.47;;;0.20;;
47433;SDS011;33184;48.774;8.918;2022-10-22T04:48:22;4.32;;;0.20;;
47433;SDS011;33184;48.774;8.918;2022-10-22T04:53:43;0.77;;;0.30;;
47433;SDS011;33184;48.774;8.918;2022-10-22T04:59:05;1.98;;;0.35;;
47433;SDS011;33184;48.774;8.918;2022-10-22T05:04:26;2.97;;;0.55;;
47433;SDS011;33184;48.774;8.918;2022-10-22T05:09:47;1.75;;;0.10;;
47433;SDS011;33184;48.774;8.918;2022-10-22T05:15:08;1.45;;;0.30;;
47433;SDS011;33184;48.774;8.918;2022-10-22T05:20:28;1.15;;;0.20;;
47433;SDS011;33184;48.774;8.918;2022-10-22T05:25:49;4.82;;;0.30;;
47433;SDS011;33184;48.774;8.918;2022-10-22T05:31:10;1.25;;;0.10;;
47433;SDS011;33184;48.774;8.918;2022-10-22T05:36:32;0.85;;;0.20;;
47433;SDS011;33184;48.774;8.918;2022-10-22T05:41:53;4.10;;;1.85;;
47433;SDS011;33184;48.774;8.918;2022-10-22T05:47:13;0.38;;;0.10;;
47433;SDS011;33184;48.774;8.918;2022-10-22T05:52:34;3.72;;;0.20;;
47433;SDS011;33184;48.774;8.918;2022-10-22T05:57:54;1.20;;;0.10;;
47433;SDS011;33184;48.774;8.918;2022-10-22T06:03:15;1.17;;;0.10;;
47433;SDS011;33184;48.774;8.918;2022-10-22T06:08:35;0.30;;;0.25;;
47433;SDS011;33184;48.774;8.918;2022-10-22T06:13:56;0.57;;;0.20;;
47433;SDS011;33184;48.774;8.918;2022-10-22T06:19:17;0.55;;;0.30;;
47433;SDS011;33184;48.774;8.918;2022-10-22T06:24:40;1.10;;;0.40;;
47433;SDS011;33184;48.774;8.918;2022-10-22T06:30:01;1.95;;;0.40;;
47433;SDS011;33184;48.774;8.918;2022-10-22T06:35:21;1.02;;;0.40;;
47433;SDS011;33184;48.774;8.918;2022-10-22T06:40:42;2.05;;;0.60;;
47433;SDS011;33184;48.774;8.918;2022-10-22T06:46:05;0.90;;;0.90;;
47433;SDS011;33184;48.774;8.918;2022-10-22T06:51:27;0.30;;;0.20;;
47433;SDS011;33184;48.774;8.918;2022-10-22T06:56:49;0.57;;;0.10;;
47433;SDS011;33184;48.774;8.918;2022-10-22T07:02:09;0.63;;;0.15;;
47433;SDS011;33184;48.774;8.918;2022-10-22T07:07:30;0.50;;;0.20;;
47433;SDS011;33184;48.774;8.918;2022-10-22T07:12:50;0.63;;;0.15;;
47433;SDS011;33184;48.774;8.918;2022-10-22T07:18:12;0.22;;;0.20;;
47433;SDS011;33184;48.774;8.918;2022-10-22T07:23:33;0.57;;;0.20;;
47433;SDS011;33184;48.774;8.918;2022-10-22T07:28:54;0.43;;;0.20;;
47433;SDS011;33184;48.774;8.918;2022-10-22T07:34:15;0.30;;;0.17;;
47433;SDS011;33184;48.774;8.918;2022-10-22T07:39:36;0.47;;;0.20;;
47433;SDS011;33184;48.774;8.918;2022-10-22T07:44:57;0.50;;;0.20;;
47433;SDS011;33184;48.774;8.918;2022-10-22T07:50:18;0.40;;;0.10;;
47433;SDS011;33184;48.774;8.918;2022-10-22T07:55:38;0.35;;;0.30;;
47433;SDS011;33184;48.774;8.918;2022-10-22T08:00:59;0.93;;;0.20;;
47433;SDS011;33184;48.774;8.918;2022-10-22T08:06:21;1.85;;;0.10;;
47433;SDS011;33184;48.774;8.918;2022-10-22T08:11:41;0.43;;;0.15;;
47433;SDS011;33184;48.774;8.918;2022-10-22T08:17:02;0.88;;;0.10;;
47433;SDS011;33184;48.774;8.918;2022-10-22T08:22:22;1.52;;;0.30;;
47433;SDS011;33184;48.774;8.918;2022-10-22T08:27:43;2.85;;;0.20;;
47433;SDS011;33184;48.774;8.918;2022-10-22T08:33:04;0.30;;;0.20;;
47433;SDS011;33184;48.774;8.918;2022-10-22T08:38:25;1.85;;;0.20;;
47433;SDS011;33184;48.774;8.918;2022-10-22T08:49:28;0.80;;;0.30;;
47433;SDS011;33184;48.774;8.918;2022-10-22T09:00:23;0.50;;;0.30;;
47433;SDS011;33184;48.774;8.918;2022-10-22T09:06:08;0.75;;;0.30;;
47433;SDS011;33184;48.774;8.918;2022-10-22T09:11:36;0.30;;;0.20;;
47433;SDS011;33184;48.774;8.918;2022-10-22T09:28:30;1.42;;;0.32;;
47433;SDS011;33184;48.774;8.918;2022-10-22T09:33:51;1.83;;;0.30;;
47433;SDS011;33184;48.774;8.918;2022-10-22T09:39:28;0.25;;;0.10;;
47433;SDS011;33184;48.774;8.918;2022-10-22T09:44:59;0.55;;;0.20;;
47433;SDS011;33184;48.774;8.918;2022-10-22T09:50:21;0.85;;;0.20;;
47433;SDS011;33184;48.774;8.918;2022-10-22T09:55:51;1.10;;;0.20;;
47433;SDS011;33184;48.774;8.918;2022-10-22T10:01:34;0.90;;;0.40;;
47433;SDS011;33184;48.774;8.918;2022-10-22T10:06:57;1.85;;;0.40;;
47433;SDS011;33184;48.774;8.918;2022-10-22T10:29:23;3.15;;;0.20;;
47433;SDS011;33184;48.774;8.918;2022-10-22T10:35:02;3.63;;;0.20;;
47433;SDS011;33184;48.774;8.918;2022-10-22T10:46:18;1.67;;;0.28;;
47433;SDS011;33184;48.774;8.918;2022-10-22T10:52:05;2.95;;;0.30;;
47433;SDS011;33184;48.774;8.918;2022-10-22T11:08:30;1.13;;;0.20;;
47433;SDS011;33184;48.774;8.918;2022-10-22T11:14:05;1.25;;;0.20;;
47433;SDS011;33184;48.774;8.918;2022-10-22T11:19:43;1.77;;;0.32;;
47433;SDS011;33184;48.774;8.918;2022-10-22T11:25:33;1.52;;;0.30;;
47433;SDS011;33184;48.774;8.918;2022-10-22T11:31:00;2.10;;;0.20;;
47433;SDS011;33184;48.774;8.918;2022-10-22T11:36:24;2.22;;;0.30;;
47433;SDS011;33184;48.774;8.918;2022-10-22T11:41:48;1.85;;;0.75;;
47433;SDS011;33184;48.774;8.918;2022-10-22T11:47:19;1.42;;;0.20;;
47433;SDS011;33184;48.774;8.918;2022-10-22T12:09:33;1.60;;;0.40;;
47433;SDS011;33184;48.774;8.918;2022-10-22T12:14:59;1.58;;;0.20;;
47433;SDS011;33184;48.774;8.918;2022-10-22T12:20:20;3.85;;;0.35;;
47433;SDS011;33184;48.774;8.918;2022-10-22T12:25:45;1.02;;;0.30;;
47433;SDS011;33184;48.774;8.918;2022-10-22T12:31:05;2.15;;;0.20;;
47433;SDS011;33184;48.774;8.918;2022-10-22T12:36:34;0.85;;;0.20;;
47433;SDS011;33184;48.774;8.918;2022-10-22T12:41:55;1.50;;;0.30;;
47433;SDS011;33184;48.774;8.918;2022-10-22T12:47:16;1.50;;;0.20;;
47433;SDS011;33184;48.774;8.918;2022-10-22T12:52:37;1.88;;;0.20;;
47433;SDS011;33184;48.774;8.918;2022-10-22T12:57:58;2.60;;;0.20;;
47433;SDS011;33184;48.774;8.918;2022-10-22T13:08:55;0.93;;;0.20;;
47433;SDS011;33184;48.774;8.918;2022-10-22T13:19:43;4.75;;;0.30;;
47433;SDS011;33184;48.774;8.918;2022-10-22T13:30:33;1.40;;;0.40;;
47433;SDS011;33184;48.774;8.918;2022-10-22T13:35:55;4.90;;;0.37;;
47433;SDS011;33184;48.774;8.918;2022-10-22T13:41:17;2.45;;;0.60;;
47433;SDS011;33184;48.774;8.918;2022-10-22T13:46:46;2.17;;;0.28;;
47433;SDS011;33184;48.774;8.918;2022-10-22T13:52:20;4.07;;;0.40;;
47433;SDS011;33184;48.774;8.918;2022-10-22T13:57:46;2.58;;;0.30;;
47433;SDS011;33184;48.774;8.918;2022-10-22T14:03:09;0.55;;;0.20;;
47433;SDS011;33184;48.774;8.918;2022-10-22T14:08:31;1.23;;;0.30;;
47433;SDS011;33184;48.774;8.918;2022-10-22T14:13:52;0.93;;;0.30;;
47433;SDS011;33184;48.774;8.918;2022-10-22T14:19:14;0.93;;;0.30;;
47433;SDS011;33184;48.774;8.918;2022-10-22T14:24:36;2.10;;;0.20;;
47433;SDS011;33184;48.774;8.918;2022-10-22T14:29:57;1.35;;;0.40;;
47433;SDS011;33184;48.774;8.918;2022-10-22T14:35:19;1.05;;;0.10;;
47433;SDS011;33184;48.774;8.918;2022-10-22T14:40:41;1.25;;;0.30;;
47433;SDS011;33184;48.774;8.918;2022-10-22T14:46:02;2.53;;;0.40;;
47433;SDS011;33184;48.774;8.918;2022-10-22T14:51:22;1.05;;;0.20;;
47433;SDS011;33184;48.774;8.918;2022-10-22T14:56:43;3.20;;;0.20;;
47433;SDS011;33184;48.774;8.918;2022-10-22T15:02:03;3.30;;;0.20;;
47433;SDS011;33184;48.774;8.918;2022-10-22T15:07:24;3.05;;;0.30;;
47433;SDS011;33184;48.774;8.918;2022-10-22T15:12:46;0.77;;;0.17;;
47433;SDS011;33184;48.774;8.918;2022-10-22T15:18:06;1.73;;;0.90;;
47433;SDS011;33184;48.774;8.918;2022-10-22T15:23:27;1.92;;;0.30;;
47433;SDS011;33184;48.774;8.918;2022-10-22T15:28:48;1.52;;;0.20;;
47433;SDS011;33184;48.774;8.918;2022-10-22T15:34:09;2.25;;;0.40;;
47433;SDS011;33184;48.774;8.918;2022-10-22T15:39:29;1.33;;;0.28;;
47433;SDS011;33184;48.774;8.918;2022-10-22T15:44:55;0.75;;;0.35;;
47433;SDS011;33184;48.774;8.918;2022-10-22T15:50:17;2.25;;;0.30;;
47433;SDS011;33184;48.774;8.918;2022-10-22T15:55:37;1.67;;;0.63;;
47433;SDS011;33184;48.774;8.918;2022-10-22T16:01:08;2.08;;;0.40;;
47433;SDS011;33184;48.774;8.918;2022-10-22T16:06:35;1.35;;;0.32;;
47433;SDS011;33184;48.774;8.918;2022-10-22T16:12:11;2.75;;;1.30;;
47433;SDS011;33184;48.774;8.918;2022-10-22T16:17:31;4.63;;;1.60;;
47433;SDS011;33184;48.774;8.918;2022-10-22T16:22:52;6.43;;;2.10;;
47433;SDS011;33184;48.774;8.918;2022-10-22T16:28:13;13.30;;;2.20;;
47433;SDS011;33184;48.774;8.918;2022-10-22T16:33:34;8.80;;;2.35;;
47433;SDS011;33184;48.774;8.918;2022-10-22T16:38:56;4.03;;;1.38;;
47433;SDS011;33184;48.774;8.918;2022-10-22T16:44:16;3.35;;;0.80;;
47433;SDS011;33184;48.774;8.918;2022-10-22T16:49:37;5.68;;;1.25;;
47433;SDS011;33184;48.774;8.918;2022-10-22T16:54:57;2.40;;;1.02;;
47433;SDS011;33184;48.774;8.918;2022-10-22T17:00:20;5.72;;;1.20;;
47433;SDS011;33184;48.774;8.918;2022-10-22T17:05:40;5.15;;;0.80;;
47433;SDS011;33184;48.774;8.918;2022-10-22T17:11:08;4.22;;;1.52;;
47433;SDS011;33184;48.774;8.918;2022-10-22T17:16:31;7.03;;;0.85;;
47433;SDS011;33184;48.774;8.918;2022-10-22T17:21:51;1.63;;;0.70;;
47433;SDS011;33184;48.774;8.918;2022-10-22T17:27:12;7.63;;;2.28;;
47433;SDS011;33184;48.774;8.918;2022-10-22T17:32:37;7.53;;;2.53;;
47433;SDS011;33184;48.774;8.918;2022-10-22T17:37:58;5.82;;;1.58;;
47433;SDS011;33184;48.774;8.918;2022-10-22T17:43:18;4.25;;;1.40;;
47433;SDS011;33184;48.774;8.918;2022-10-22T17:48:40;2.80;;;0.75;;
47433;SDS011;33184;48.774;8.918;2022-10-22T17:54:00;7.80;;;1.02;;
47433;SDS011;33184;48.774;8.918;2022-10-22T17:59:21;2.22;;;0.98;;
47433;SDS011;33184;48.774;8.918;2022-10-22T18:04:42;3.40;;;0.95;;
47433;SDS011;33184;48.774;8.918;2022-10-22T18:10:03;6.60;;;1.00;;
47433;SDS011;33184;48.774;8.918;2022-10-22T18:15:23;4.20;;;1.10;;
47433;SDS011;33184;48.774;8.918;2022-10-22T18:20:51;6.10;;;1.00;;
47433;SDS011;33184;48.774;8.918;2022-10-22T18:26:12;3.40;;;1.50;;
47433;SDS011;33184;48.774;8.918;2022-10-22T18:31:34;4.95;;;1.60;;
47433;SDS011;33184;48.774;8.918;2022-10-22T18:36:55;4.03;;;1.85;;
47433;SDS011;33184;48.774;8.918;2022-10-22T18:42:15;4.85;;;2.13;;
47433;SDS011;33184;48.774;8.918;2022-10-22T18:47:38;5.22;;;1.63;;
47433;SDS011;33184;48.774;8.918;2022-10-22T18:53:00;7.90;;;2.53;;
47433;SDS011;33184;48.774;8.918;2022-10-22T18:58:20;5.18;;;2.85;;
47433;SDS011;33184;48.774;8.918;2022-10-22T19:03:41;6.13;;;2.95;;
47433;SDS011;33184;48.774;8.918;2022-10-22T19:09:02;6.25;;;2.58;;
47433;SDS011;33184;48.774;8.918;2022-10-22T19:14:23;6.35;;;2.38;;
47433;SDS011;33184;48.774;8.918;2022-10-22T19:19:44;8.35;;;2.13;;
47433;SDS011;33184;48.774;8.918;2022-10-22T19:25:05;8.50;;;2.47;;
47433;SDS011;33184;48.774;8.918;2022-10-22T19:30:26;6.43;;;2.95;;
47433;SDS011;33184;48.774;8.918;2022-10-22T19:35:46;7.97;;;2.30;;
47433;SDS011;33184;48.774;8.918;2022-10-22T19:41:08;7.05;;;2.45;;
47433;SDS011;33184;48.774;8.918;2022-10-22T19:46:31;4.38;;;3.00;;
47433;SDS011;33184;48.774;8.918;2022-10-22T19:51:52;6.47;;;3.35;;
47433;SDS011;33184;48.774;8.918;2022-10-22T19:57:13;6.55;;;2.63;;
47433;SDS011;33184;48.774;8.918;2022-10-22T20:02:36;10.20;;;2.83;;
47433;SDS011;33184;48.774;8.918;2022-10-22T20:07:57;7.55;;;3.05;;
47433;SDS011;33184;48.774;8.918;2022-10-22T20:13:18;7.10;;;1.90;;
47433;SDS011;33184;48.774;8.918;2022-10-22T20:18:39;7.47;;;1.88;;
47433;SDS011;33184;48.774;8.918;2022-10-22T20:23:59;4.30;;;2.40;;
47433;SDS011;33184;48.774;8.918;2022-10-22T20:29:20;7.45;;;3.83;;
47433;SDS011;33184;48.774;8.918;2022-10-22T20:34:41;6.35;;;4.05;;
47433;SDS011;33184;48.774;8.918;2022-10-22T20:40:01;14.30;;;6.47;;
47433;SDS011;33184;48.774;8.918;2022-10-22T20:45:22;9.95;;;2.58;;
47433;SDS011;33184;48.774;8.918;2022-10-22T20:50:43;3.10;;;1.40;;
47433;SDS011;33184;48.774;8.918;2022-10-22T20:56:04;3.20;;;1.40;;
47433;SDS011;33184;48.774;8.918;2022-10-22T21:01:24;6.20;;;3.95;;
47433;SDS011;33184;48.774;8.918;2022-10-22T21:06:47;5.60;;;3.53;;
47433;SDS011;33184;48.774;8.918;2022-10-22T21:12:09;5.68;;;3.65;;
47433;SDS011;33184;48.774;8.918;2022-10-22T21:17:29;10.30;;;5.05;;
47433;SDS011;33184;48.774;8.918;2022-10-22T21:22:50;6.50;;;3.67;;
47433;SDS011;33184;48.774;8.918;2022-10-22T21:28:10;11.77;;;5.25;;
47433;SDS011;33184;48.774;8.918;2022-10-22T21:33:34;6.55;;;4.03;;
47433;SDS011;33184;48.774;8.918;2022-10-22T21:38:59;5.57;;;3.60;;
47433;SDS011;33184;48.774;8.918;2022-10-22T21:44:20;8.23;;;3.55;;
47433;SDS011;33184;48.774;8.918;2022-10-22T21:49:40;4.93;;;2.30;;
47433;SDS011;33184;48.774;8.918;2022-10-22T21:55:01;6.40;;;2.47;;
47433;SDS011;33184;48.774;8.918;2022-10-22T22:00:21;8.18;;;3.13;;
47433;SDS011;33184;48.774;8.918;2022-10-22T22:05:42;4.82;;;3.30;;
47433;SDS011;33184;48.774;8.918;2022-10-22T22:11:03;4.50;;;2.95;;
47433;SDS011;33184;48.774;8.918;2022-10-22T22:16:29;6.65;;;3.05;;
47433;SDS011;33184;48.774;8.918;2022-10-22T22:21:51;10.48;;;3.05;;
47433;SDS011;33184;48.774;8.918;2022-10-22T22:27:12;8.18;;;2.97;;
47433;SDS011;33184;48.774;8.918;2022-10-22T22:32:35;5.15;;;2.20;;
47433;SDS011;33184;48.774;8.918;2022-10-22T22:37:55;3.83;;;3.33;;
47433;SDS011;33184;48.774;8.918;2022-10-22T22:43:16;7.40;;;3.38;;
47433;SDS011;33184;48.774;8.918;2022-10-22T22:48:36;4.63;;;3.17;;
47433;SDS011;33184;48.774;8.918;2022-10-22T22:53:58;7.60;;;3.60;;
47433;SDS011;33184;48.774;8.918;2022-10-22T22:59:19;8.73;;;4.25;;
47433;SDS011;33184;48.774;8.918;2022-10-22T23:04:40;9.27;;;3.20;;
47433;SDS011;33184;48.774;8.918;2022-10-22T23:10:00;5.20;;;2.92;;
47433;SDS011;33184;48.774;8.918;2022-10-22T23:15:21;6.55;;;3.38;;
47433;SDS011;33184;48.774;8.918;2022-10-22T23:20:41;6.80;;;3.70;;
47433;SDS011;33184;48.774;8.918;2022-10-22T23:26:02;5.50;;;2.80;;
47433;SDS011;33184;48.774;8.918;2022-10-22T23:31:23;9.35;;;3.42;;
47433;SDS011;33184;48.774;8.918;2022-10-22T23:36:43;7.70;;;3.50;;
47433;SDS011;33184;48.774;8.918;2022-10-22T23:42:04;14.00;;;3.65;;
47433;SDS011;33184;48.774;8.918;2022-10-22T23:47:24;6.43;;;3.13;;
47433;SDS011;33184;48.774;8.918;2022-10-22T23:52:45;9.32;;;3.83;;
47433;SDS011;33184;48.774;8.918;2022-10-22T23:58:06;5.63;;;3.53;;
